PDA

View Full Version : RSS Help



Andy_H
11-05-2004, 07:49 PM
Good evening folks..
Newcomer to this new RSS wizardry..
I am looking for a decent source, hopefully here, that will help me display a page with live weather feeds on my weather pages of my website.

Ideally, I would like to display just the text in a table,
The information I have is from this site http://www.rssweather.com/hw3.php?icao=EGDL

and I would like to get the current weather displayed on my site like this

Humidity:93% Wind Speed:10 KMH Wind Direction:SW (230) Barometer:1031 mb Dewpoint:6C Heat Index:7C Wind Chill:5C Visibility:8 km
no other fancy images...

Plus I would like to get the TAFs at the bottom:
2004/11/05 19:37
EGDL 051937Z 052115 26006KT 9999 BKN030 PROB30
TEMPO 0912 7000 -RA BKN020
BECMG 1215 BKN018 PROB30
TEMPO 1215 5000 -DZ BKN012

Updated: 0737 PM GMT FRI NOV 05 2004

Is there a tutorial/site around that will explain it in noddy terms so I can get live displays..
Thank you
andy

ausant
11-08-2004, 02:51 AM
? what is rss ?? and whats it stand for?

cr3ative
11-08-2004, 12:57 PM
http://www.google.com/search?hl=en&q=%22what+is+rss%22&btnG=Google+Search

Before posting, I always google it. Usually, it answers my question... :rolleyes:

cr3ative

ausant
11-11-2004, 02:41 AM
ok.. i know what it is know thanks for that.. i never knew that news sites had their own code.. :S :0